createdAt,value
2023-11-11T00:05:55.501Z,46.2
2023-11-11T00:12:01.126Z,46.2
2023-11-11T00:18:06.650Z,46.1
2023-11-11T00:24:12.109Z,46.1
2023-11-11T00:30:18.896Z,46
2023-11-11T00:36:24.234Z,46
2023-11-11T00:42:29.988Z,46
2023-11-11T00:48:35.584Z,46
2023-11-11T00:54:41.095Z,45.9
2023-11-11T01:00:46.968Z,45.9
2023-11-11T01:06:52.485Z,45.9
2023-11-11T01:12:57.464Z,45.9
2023-11-11T01:19:02.590Z,45.8
2023-11-11T01:25:08.397Z,45.8
2023-11-11T01:31:14.149Z,45.8
2023-11-11T01:37:19.693Z,45.8
2023-11-11T01:43:25.177Z,45.7
2023-11-11T01:49:30.680Z,45.8
2023-11-11T01:55:35.946Z,45.7
2023-11-11T02:01:41.388Z,45.7
2023-11-11T02:07:46.542Z,45.7
2023-11-11T02:13:51.563Z,45.7
2023-11-11T02:19:56.495Z,45.7
2023-11-11T02:26:02.084Z,45.7
2023-11-11T02:32:07.604Z,45.7
2023-11-11T02:38:12.803Z,45.8
2023-11-11T02:44:18.549Z,45.8
2023-11-11T02:50:23.913Z,45.8
2023-11-11T02:56:29.333Z,45.8
2023-11-11T03:02:35.094Z,45.8
2023-11-11T03:08:41.098Z,45.8
2023-11-11T03:14:46.246Z,45.8
2023-11-11T03:20:51.789Z,45.9
2023-11-11T03:26:57.365Z,45.9
2023-11-11T03:33:03.338Z,45.9
2023-11-11T03:39:09.144Z,46
2023-11-11T03:45:14.921Z,46
2023-11-11T03:51:20.323Z,46
2023-11-11T03:57:25.882Z,46
2023-11-11T04:03:31.283Z,46.1
2023-11-11T04:09:36.590Z,46.1
2023-11-11T04:15:42.422Z,46.1
2023-11-11T04:21:48.164Z,46.1
2023-11-11T04:27:53.526Z,46.1
2023-11-11T04:33:59.151Z,45.7
2023-11-11T04:40:04.482Z,49.8
2023-11-11T04:46:09.611Z,48.1
2023-11-11T04:52:14.828Z,47.4
2023-11-11T04:58:20.524Z,47.1
2023-11-11T05:04:25.745Z,46.9
2023-11-11T05:10:31.022Z,46.6
2023-11-11T05:16:36.769Z,46.5
2023-11-11T05:22:42.431Z,46.5
2023-11-11T05:28:48.195Z,46.3
2023-11-11T05:34:53.780Z,46.2
2023-11-11T05:40:59.952Z,46.2
2023-11-11T05:47:05.544Z,46.1
2023-11-11T05:53:10.544Z,46
2023-11-11T05:59:16.495Z,46
2023-11-11T06:05:22.648Z,46
2023-11-11T06:11:31.351Z,46
2023-11-11T06:17:36.726Z,45.9
2023-11-11T06:23:46.229Z,46
2023-11-11T06:29:52.346Z,45.7
2023-11-11T06:35:57.698Z,45.8
2023-11-11T06:42:03.687Z,45.7
2023-11-11T06:48:08.897Z,45.6
2023-11-11T06:54:14.492Z,45.5
2023-11-11T07:00:21.031Z,45.5
2023-11-11T07:06:26.590Z,45.5
2023-11-11T07:12:32.129Z,45.2
2023-11-11T07:18:37.807Z,45.2
2023-11-11T07:24:43.350Z,45.2
2023-11-11T07:30:49.120Z,45.6
2023-11-11T07:36:54.886Z,46.9
2023-11-11T07:43:00.530Z,47.9
2023-11-11T07:49:05.814Z,47.9
2023-11-11T07:55:11.177Z,47
2023-11-11T08:01:16.964Z,46.7
2023-11-11T08:07:22.327Z,46.6
2023-11-11T08:13:27.704Z,46.4
2023-11-11T08:19:33.119Z,46.4
2023-11-11T08:25:38.625Z,46.2
2023-11-11T08:31:44.275Z,46.1
2023-11-11T08:37:49.663Z,46
2023-11-11T08:43:54.592Z,46
2023-11-11T08:50:00.310Z,46
2023-11-11T08:56:06.137Z,46
2023-11-11T09:02:11.870Z,45.9
2023-11-11T09:08:17.488Z,45.9
2023-11-11T09:14:23.441Z,45.9
2023-11-11T09:20:29.450Z,45.8
2023-11-11T09:26:34.999Z,45.7
2023-11-11T09:32:40.841Z,45.8
2023-11-11T09:38:46.180Z,45.7
2023-11-11T09:51:03.023Z,45.6
2023-11-11T09:57:09.227Z,45.7
2023-11-11T10:03:14.740Z,51.4
2023-11-11T10:09:20.400Z,47.7
2023-11-11T10:15:26.133Z,47.1
2023-11-11T10:21:31.961Z,47
2023-11-11T10:27:37.115Z,46.8
2023-11-11T10:33:42.425Z,46.7
2023-11-11T10:39:48.262Z,46.6
2023-11-11T10:45:54.057Z,46.7
2023-11-11T10:51:59.651Z,46.8
2023-11-11T10:58:04.995Z,46.8
2023-11-11T11:04:10.219Z,47.1
2023-11-11T11:10:16.100Z,47.3
2023-11-11T11:16:21.885Z,47.3
2023-11-11T11:22:27.094Z,47.4
2023-11-11T11:28:32.812Z,47.3
2023-11-11T11:34:38.477Z,47.1
2023-11-11T11:40:44.385Z,47
2023-11-11T11:46:50.176Z,46.9
2023-11-11T11:52:55.325Z,47
2023-11-11T11:59:00.973Z,47
2023-11-11T12:05:06.914Z,46.9
2023-11-11T12:11:12.415Z,46.8
2023-11-11T12:17:17.723Z,46.8
2023-11-11T12:23:23.362Z,46.7
2023-11-11T12:29:28.533Z,46.6
2023-11-11T12:35:34.319Z,46.5
2023-11-11T12:41:39.888Z,46.5
2023-11-11T12:47:45.345Z,46.6
2023-11-11T12:53:51.049Z,46.5
2023-11-11T12:59:56.812Z,47
2023-11-11T13:06:02.451Z,46.7
2023-11-11T13:12:07.757Z,46.4
2023-11-11T13:18:13.434Z,46.6
2023-11-11T13:24:18.961Z,46.5
2023-11-11T13:30:24.463Z,46.8
2023-11-11T13:36:29.706Z,47
2023-11-11T13:42:34.721Z,46.8
2023-11-11T13:48:39.777Z,46.7
2023-11-11T13:54:45.430Z,47.2
2023-11-11T14:00:50.684Z,46.9
2023-11-11T14:06:56.081Z,46.9
2023-11-11T14:13:01.697Z,46.9
2023-11-11T14:19:07.054Z,47
2023-11-11T14:25:12.982Z,46.8
2023-11-11T14:31:18.777Z,46.8
2023-11-11T14:37:24.187Z,47
2023-11-11T14:43:30.021Z,46.8
2023-11-11T14:49:35.380Z,46.8
2023-11-11T14:55:40.983Z,46.5
2023-11-11T15:01:47.095Z,47.2
2023-11-11T15:07:53.044Z,46.6
2023-11-11T15:13:58.291Z,46.6
2023-11-11T15:20:03.585Z,46.6
2023-11-11T15:26:09.185Z,47.2
2023-11-11T15:32:14.619Z,46.6
2023-11-11T15:38:21.904Z,47
2023-11-11T15:44:27.138Z,46.7
2023-11-11T15:50:32.678Z,46.1
2023-11-11T15:56:38.101Z,46.5
2023-11-11T16:02:43.846Z,46.4
2023-11-11T16:08:49.799Z,46.5
2023-11-11T16:14:55.425Z,46.5
2023-11-11T16:21:00.630Z,46.5
2023-11-11T16:27:05.737Z,46.8
2023-11-11T16:33:11.702Z,46.9
2023-11-11T16:39:17.464Z,46.7
2023-11-11T16:45:22.724Z,47.2
2023-11-11T16:51:28.408Z,47
2023-11-11T16:57:33.816Z,47.1
2023-11-11T17:03:39.381Z,47.5
2023-11-11T17:09:44.950Z,47
2023-11-11T17:15:50.360Z,47
2023-11-11T17:21:55.681Z,47.1
2023-11-11T17:28:01.270Z,47
2023-11-11T17:34:06.695Z,47
2023-11-11T17:40:12.638Z,46.9
2023-11-11T17:46:18.012Z,46.9
2023-11-11T17:52:23.419Z,47
2023-11-11T17:58:28.940Z,47
2023-11-11T18:04:34.771Z,47
2023-11-11T18:10:40.647Z,47.1
2023-11-11T18:16:46.559Z,47
2023-11-11T18:22:52.055Z,47
2023-11-11T18:28:56.968Z,47
2023-11-11T18:35:02.494Z,47
2023-11-11T18:41:07.702Z,46.9
2023-11-11T18:47:13.609Z,47
2023-11-11T18:53:19.457Z,46.9
2023-11-11T18:59:25.028Z,46.9
2023-11-11T19:05:31.148Z,46.9
2023-11-11T19:11:36.996Z,46.9
2023-11-11T19:17:42.591Z,46.9
2023-11-11T19:23:48.409Z,46.9
2023-11-11T19:29:53.966Z,46.9
2023-11-11T19:35:59.333Z,46.8
2023-11-11T19:42:04.649Z,46.9
2023-11-11T19:48:10.657Z,46.8
2023-11-11T19:54:16.270Z,46.9
2023-11-11T20:00:21.804Z,47
2023-11-11T20:06:27.196Z,47.2
2023-11-11T20:12:33.337Z,47.3
2023-11-11T20:18:38.624Z,47.5
2023-11-11T20:24:43.941Z,47.5
2023-11-11T20:30:50.117Z,46.1
2023-11-11T20:36:55.290Z,45.8
2023-11-11T20:43:00.277Z,45.5
2023-11-11T20:49:05.812Z,45.4
2023-11-11T20:55:11.531Z,45.2
2023-11-11T21:01:16.806Z,45.2
2023-11-11T21:07:22.495Z,45
2023-11-11T21:13:27.897Z,44.9
2023-11-11T21:19:33.698Z,44.8
2023-11-11T21:25:38.740Z,44.7
2023-11-11T21:31:44.285Z,44.6
2023-11-11T21:37:50.051Z,44.6
2023-11-11T21:43:55.537Z,44.5
2023-11-11T21:50:00.967Z,44.5
2023-11-11T21:56:06.903Z,44.4
2023-11-11T22:02:12.726Z,44.3
2023-11-11T22:08:18.665Z,44.3
2023-11-11T22:14:24.398Z,44.3
2023-11-11T22:20:30.176Z,44.2
2023-11-11T22:26:35.974Z,44.2
2023-11-11T22:32:41.475Z,44.3
2023-11-11T22:38:47.316Z,44.2
2023-11-11T22:44:52.912Z,44.2
2023-11-11T22:50:58.102Z,44
2023-11-11T22:57:03.625Z,44
2023-11-11T23:03:08.714Z,44
2023-11-11T23:09:14.017Z,44
2023-11-11T23:15:18.977Z,44.1
2023-11-11T23:21:24.435Z,44
2023-11-11T23:27:30.477Z,44
2023-11-11T23:33:36.110Z,44
2023-11-11T23:39:41.871Z,44
2023-11-11T23:45:47.189Z,43.9
2023-11-11T23:51:52.977Z,43.9
2023-11-11T23:57:59.163Z,44
